Time;durP1;ratioP1;P1;durP2;ratioP2;P2;SDS_P1;SDS_P2;PMS_P1;PMS_P2;Temp;Humidity;BMP_temperature;BMP_pressure;BME280_temperature;BME280_humidity;BME280_pressure;Samples;Min_cycle;Max_cycle;Signal;HPM_P1;HPM_P2
2021/07/09 00:02:04;;;;;;;5.25;3.45;;;;;;;;;;5029139;28;20077;-88
2021/07/09 00:04:32;;;;;;;7.88;4.03;;;;;;;;;;5029566;28;20049;-88
2021/07/09 00:06:59;;;;;;;5.93;3.65;;;;;;;;;;5029545;28;20144;-88
2021/07/09 00:09:27;;;;;;;5.45;3.55;;;;;;;;;;5011670;28;20156;-87
2021/07/09 00:11:55;;;;;;;8.07;4.03;;;;;;;;;;5011849;28;20076;-88
2021/07/09 00:14:25;;;;;;;6.38;3.67;;;;;;;;;;5011564;28;20132;-88
2021/07/09 00:16:53;;;;;;;9.48;4.00;;;;;;;;;;5029354;28;20115;-87
2021/07/09 00:19:20;;;;;;;9.32;4.05;;;;;;;;;;5029038;28;20077;-87
2021/07/09 00:21:49;;;;;;;6.90;4.20;;;;;;;;;;5029246;28;20085;-88
2021/07/09 00:24:16;;;;;;;7.50;4.72;;;;;;;;;;5011986;28;20137;-87
2021/07/09 00:26:44;;;;;;;8.55;4.60;;;;;;;;;;5011519;28;20527;-88
2021/07/09 00:29:12;;;;;;;17.48;4.95;;;;;;;;;;5011899;28;20160;-88
2021/07/09 00:31:39;;;;;;;7.65;3.72;;;;;;;;;;5011716;28;20057;-88
2021/07/09 00:34:08;;;;;;;9.50;4.68;;;;;;;;;;5012106;28;20115;-88
2021/07/09 00:36:43;;;;;;;5.15;3.75;;;;;;;;;;5028964;28;20124;-88
2021/07/09 00:39:11;;;;;;;8.27;3.67;;;;;;;;;;5015477;28;20139;-88
2021/07/09 00:41:38;;;;;;;5.38;3.42;;;;;;;;;;5014969;28;20149;-88
2021/07/09 00:44:06;;;;;;;7.15;4.25;;;;;;;;;;5015187;28;20053;-88
2021/07/09 00:46:38;;;;;;;8.20;4.50;;;;;;;;;;5032295;28;20161;-88
2021/07/09 00:49:06;;;;;;;4.80;4.00;;;;;;;;;;5015228;28;20045;-89
2021/07/09 00:51:33;;;;;;;5.60;3.90;;;;;;;;;;5015398;28;20140;-88
2021/07/09 00:54:00;;;;;;;6.28;3.70;;;;;;;;;;5015652;28;20208;-88
2021/07/09 00:56:28;;;;;;;5.95;3.80;;;;;;;;;;5015406;28;20464;-88
2021/07/09 00:58:56;;;;;;;4.57;3.60;;;;;;;;;;5014169;28;20042;-88
2021/07/09 01:01:23;;;;;;;5.03;3.10;;;;;;;;;;5014887;28;20061;-88
2021/07/09 01:03:50;;;;;;;8.13;3.80;;;;;;;;;;5012968;28;20083;-89
2021/07/09 01:06:17;;;;;;;4.97;3.30;;;;;;;;;;5011023;28;20246;-88
2021/07/09 01:08:45;;;;;;;4.30;3.30;;;;;;;;;;5010993;28;20053;-88
2021/07/09 01:11:12;;;;;;;5.65;3.42;;;;;;;;;;5014793;28;20061;-89
2021/07/09 01:13:41;;;;;;;6.68;3.97;;;;;;;;;;5014659;28;20136;-89
2021/07/09 01:16:08;;;;;;;7.43;4.70;;;;;;;;;;5033064;28;20076;-89
2021/07/09 01:18:36;;;;;;;8.48;4.30;;;;;;;;;;5014927;28;20088;-88
2021/07/09 01:21:07;;;;;;;7.38;4.07;;;;;;;;;;5015360;28;20049;-88
2021/07/09 01:23:34;;;;;;;8.70;4.03;;;;;;;;;;5015381;28;20148;-88
2021/07/09 01:26:02;;;;;;;8.38;4.00;;;;;;;;;;5014483;28;20136;-89
2021/07/09 01:28:29;;;;;;;6.85;4.20;;;;;;;;;;5012546;28;20436;-89
2021/07/09 01:31:01;;;;;;;5.20;3.83;;;;;;;;;;4994983;28;20060;-88
2021/07/09 01:33:28;;;;;;;11.60;4.70;;;;;;;;;;4995021;28;20137;-89
2021/07/09 01:35:56;;;;;;;6.70;4.13;;;;;;;;;;5012560;28;20730;-89
2021/07/09 01:38:23;;;;;;;8.02;4.55;;;;;;;;;;4995510;28;20081;-89
2021/07/09 01:40:50;;;;;;;8.70;5.13;;;;;;;;;;4996469;28;20092;-89
2021/07/09 01:43:24;;;;;;;5.80;4.68;;;;;;;;;;5014143;28;20137;-89
2021/07/09 01:45:52;;;;;;;7.18;4.40;;;;;;;;;;4996183;28;20054;-89
2021/07/09 01:48:19;;;;;;;8.50;5.03;;;;;;;;;;4995594;28;20144;-88
2021/07/09 01:50:47;;;;;;;5.60;4.35;;;;;;;;;;4995529;28;20076;-89
2021/07/09 01:53:21;;;;;;;6.03;4.00;;;;;;;;;;5012601;28;20874;-87
2021/07/09 01:55:48;;;;;;;8.40;4.57;;;;;;;;;;4994376;28;20486;-87
2021/07/09 01:58:16;;;;;;;7.95;4.82;;;;;;;;;;4994291;28;20137;-89
2021/07/09 02:00:43;;;;;;;10.77;4.63;;;;;;;;;;4994350;28;20142;-88
2021/07/09 02:03:11;;;;;;;16.92;4.40;;;;;;;;;;5011640;28;20109;-89
2021/07/09 02:05:38;;;;;;;8.82;4.75;;;;;;;;;;4994531;28;20562;-89
2021/07/09 02:08:06;;;;;;;8.57;5.18;;;;;;;;;;4994713;28;20785;-88
2021/07/09 02:10:35;;;;;;;8.23;4.68;;;;;;;;;;4994388;28;20617;-88
2021/07/09 02:13:03;;;;;;;11.07;4.70;;;;;;;;;;5011925;28;20060;-89
2021/07/09 02:15:39;;;;;;;6.07;4.72;;;;;;;;;;5012044;28;20049;-88
2021/07/09 02:18:07;;;;;;;11.80;5.47;;;;;;;;;;4994128;28;20054;-89
2021/07/09 02:20:35;;;;;;;7.45;5.20;;;;;;;;;;5012115;28;20052;-88
2021/07/09 02:23:09;;;;;;;10.63;5.18;;;;;;;;;;4994297;28;20192;-88
2021/07/09 02:25:37;;;;;;;11.10;5.35;;;;;;;;;;4994431;28;20460;-89
2021/07/09 02:28:08;;;;;;;9.20;4.70;;;;;;;;;;5011898;28;20140;-87
2021/07/09 02:30:35;;;;;;;7.25;4.72;;;;;;;;;;4993904;28;20138;-87
2021/07/09 02:33:03;;;;;;;7.88;5.20;;;;;;;;;;4993773;28;20050;-88
2021/07/09 02:35:32;;;;;;;11.63;4.57;;;;;;;;;;4992596;28;20050;-88
2021/07/09 02:38:00;;;;;;;12.95;6.03;;;;;;;;;;4993552;28;20141;-88
2021/07/09 02:40:33;;;;;;;8.02;4.97;;;;;;;;;;4993622;28;20086;-89
2021/07/09 02:43:03;;;;;;;7.32;4.68;;;;;;;;;;5007018;28;20229;-88
2021/07/09 02:45:33;;;;;;;14.85;4.88;;;;;;;;;;5013486;28;20477;-89
2021/07/09 02:48:15;;;;;;;11.85;5.22;;;;;;;;;;5015504;28;20088;-89
2021/07/09 02:50:42;;;;;;;8.40;5.50;;;;;;;;;;5013152;28;20061;-88
2021/07/09 02:53:11;;;;;;;11.88;5.05;;;;;;;;;;5012890;28;20136;-88
2021/07/09 02:55:38;;;;;;;8.13;4.90;;;;;;;;;;5013102;28;20046;-89
2021/07/09 02:58:05;;;;;;;8.43;5.53;;;;;;;;;;5012976;28;20056;-88
2021/07/09 03:00:32;;;;;;;19.42;5.82;;;;;;;;;;5012334;28;20936;-88
2021/07/09 03:03:01;;;;;;;12.05;5.97;;;;;;;;;;5012915;28;20049;-88
2021/07/09 03:05:28;;;;;;;7.47;3.95;;;;;;;;;;5012948;28;20076;-89
2021/07/09 03:08:03;;;;;;;5.25;3.88;;;;;;;;;;5013790;28;20075;-88
2021/07/09 03:10:30;;;;;;;5.18;3.60;;;;;;;;;;5013164;28;20143;-88
2021/07/09 03:12:57;;;;;;;10.35;5.20;;;;;;;;;;5030724;28;20319;-88
2021/07/09 03:15:25;;;;;;;8.98;5.30;;;;;;;;;;5012916;28;20046;-88
2021/07/09 03:17:52;;;;;;;16.08;6.82;;;;;;;;;;5013121;28;20111;-88
2021/07/09 03:20:19;;;;;;;12.75;7.07;;;;;;;;;;5013214;28;20089;-88
2021/07/09 03:22:46;;;;;;;17.17;7.82;;;;;;;;;;5030401;28;20124;-83
2021/07/09 03:25:14;;;;;;;16.33;8.55;;;;;;;;;;5012017;28;20135;-84
2021/07/09 03:27:41;;;;;;;10.15;7.30;;;;;;;;;;5029552;28;20156;-84
2021/07/09 03:30:09;;;;;;;20.05;8.10;;;;;;;;;;5029830;28;20045;-83
2021/07/09 03:32:37;;;;;;;20.60;9.52;;;;;;;;;;5009493;28;20085;-84
2021/07/09 03:35:05;;;;;;;17.45;9.07;;;;;;;;;;5006520;28;20761;-83
2021/07/09 03:37:35;;;;;;;29.95;8.27;;;;;;;;;;5006931;28;20057;-83
2021/07/09 03:40:03;;;;;;;17.35;8.05;;;;;;;;;;5025166;28;20148;-84
2021/07/09 03:42:30;;;;;;;14.27;7.88;;;;;;;;;;5007637;28;20051;-84
2021/07/09 03:44:57;;;;;;;24.27;8.30;;;;;;;;;;5006991;28;20053;-84
2021/07/09 03:47:24;;;;;;;24.13;9.55;;;;;;;;;;5024705;28;20152;-84
2021/07/09 03:49:51;;;;;;;23.98;8.20;;;;;;;;;;5006310;28;20135;-83
2021/07/09 03:52:19;;;;;;;17.80;7.18;;;;;;;;;;5006959;28;20207;-84
2021/07/09 03:54:46;;;;;;;18.73;8.73;;;;;;;;;;5006564;28;20794;-84
2021/07/09 03:57:13;;;;;;;22.98;9.02;;;;;;;;;;5006464;28;20140;-83
2021/07/09 03:59:40;;;;;;;19.55;8.65;;;;;;;;;;5024730;28;20136;-83
2021/07/09 04:02:08;;;;;;;18.42;8.82;;;;;;;;;;5024238;28;20135;-83
2021/07/09 04:04:37;;;;;;;19.77;9.05;;;;;;;;;;5008992;28;20557;-84
2021/07/09 04:07:04;;;;;;;15.98;9.30;;;;;;;;;;5011854;28;20072;-84
2021/07/09 04:09:32;;;;;;;20.83;9.95;;;;;;;;;;5010870;28;20133;-83
2021/07/09 04:11:59;;;;;;;15.10;8.68;;;;;;;;;;5012679;28;20164;-84
2021/07/09 04:14:26;;;;;;;22.25;10.68;;;;;;;;;;5015875;28;20132;-83
2021/07/09 04:16:53;;;;;;;27.17;9.95;;;;;;;;;;5015399;28;20124;-83
2021/07/09 04:19:20;;;;;;;27.35;9.93;;;;;;;;;;5015400;28;20148;-83
2021/07/09 04:21:48;;;;;;;38.25;9.82;;;;;;;;;;5015654;28;20536;-84
2021/07/09 04:24:17;;;;;;;21.98;9.35;;;;;;;;;;5014942;28;20056;-84
2021/07/09 04:26:45;;;;;;;23.75;10.07;;;;;;;;;;5014361;28;20100;-84
2021/07/09 04:29:12;;;;;;;19.23;9.48;;;;;;;;;;5015276;28;20179;-84
2021/07/09 04:31:39;;;;;;;21.00;9.80;;;;;;;;;;5014862;28;20071;-84
2021/07/09 04:34:07;;;;;;;54.38;11.27;;;;;;;;;;5014515;28;20477;-84
2021/07/09 04:36:34;;;;;;;30.13;11.68;;;;;;;;;;5032531;28;20085;-84
2021/07/09 04:39:01;;;;;;;26.95;11.38;;;;;;;;;;5015361;28;20137;-84
2021/07/09 04:41:28;;;;;;;25.60;10.65;;;;;;;;;;5015151;28;20507;-84
2021/07/09 04:43:55;;;;;;;23.20;11.60;;;;;;;;;;5014414;28;20840;-84
2021/07/09 04:46:23;;;;;;;31.90;13.20;;;;;;;;;;5014568;28;20085;-84
2021/07/09 04:48:50;;;;;;;27.35;11.85;;;;;;;;;;5014936;28;20131;-84
2021/07/09 04:51:17;;;;;;;28.25;11.38;;;;;;;;;;5014934;28;20077;-84
2021/07/09 04:53:44;;;;;;;26.00;11.40;;;;;;;;;;5014760;28;20088;-84
2021/07/09 04:56:11;;;;;;;28.63;11.23;;;;;;;;;;5013894;28;20124;-84
2021/07/09 04:58:40;;;;;;;26.02;12.10;;;;;;;;;;5014905;28;20533;-84
2021/07/09 05:01:08;;;;;;;33.80;12.57;;;;;;;;;;5014278;28;20124;-84
2021/07/09 05:03:35;;;;;;;33.97;12.60;;;;;;;;;;5014753;28;20049;-84
2021/07/09 05:06:02;;;;;;;26.20;12.23;;;;;;;;;;5027331;28;20580;-85
2021/07/09 05:08:29;;;;;;;40.03;13.43;;;;;;;;;;5014791;28;20049;-84
2021/07/09 05:10:57;;;;;;;27.08;13.27;;;;;;;;;;5032277;28;20144;-85
2021/07/09 05:13:24;;;;;;;28.33;12.70;;;;;;;;;;5032196;28;20216;-84
2021/07/09 05:15:51;;;;;;;29.45;13.73;;;;;;;;;;5013363;28;20076;-84
2021/07/09 05:18:20;;;;;;;28.25;12.85;;;;;;;;;;5014185;28;20252;-85
2021/07/09 05:20:47;;;;;;;23.35;12.73;;;;;;;;;;5014294;28;20130;-84
2021/07/09 05:23:16;;;;;;;28.42;13.23;;;;;;;;;;5014047;28;20046;-84
2021/07/09 05:25:44;;;;;;;20.73;11.80;;;;;;;;;;5013189;28;20128;-84
2021/07/09 05:28:11;;;;;;;28.05;11.65;;;;;;;;;;5014194;28;20049;-84
2021/07/09 05:30:38;;;;;;;23.50;12.38;;;;;;;;;;5013439;28;20085;-85
2021/07/09 05:33:05;;;;;;;24.13;12.02;;;;;;;;;;5013146;28;20064;-84
2021/07/09 05:35:35;;;;;;;28.23;12.82;;;;;;;;;;5013972;28;20401;-84
2021/07/09 05:38:03;;;;;;;36.75;12.45;;;;;;;;;;5031473;28;20057;-84
2021/07/09 05:40:31;;;;;;;22.35;11.75;;;;;;;;;;5013326;28;20158;-84
2021/07/09 05:42:58;;;;;;;31.25;12.85;;;;;;;;;;5013356;28;20104;-84
2021/07/09 05:45:25;;;;;;;32.08;13.45;;;;;;;;;;5013701;28;20085;-85
2021/07/09 05:47:53;;;;;;;28.80;12.13;;;;;;;;;;5013303;28;20061;-84
2021/07/09 05:50:20;;;;;;;22.40;12.63;;;;;;;;;;5013717;28;20115;-84
2021/07/09 05:52:50;;;;;;;21.35;11.32;;;;;;;;;;5013479;28;20155;-84
2021/07/09 05:55:20;;;;;;;29.27;12.13;;;;;;;;;;5008338;28;20049;-84
2021/07/09 05:58:01;;;;;;;19.50;11.32;;;;;;;;;;5013075;28;20088;-85
2021/07/09 06:00:28;;;;;;;16.58;11.73;;;;;;;;;;5013438;28;20573;-84
2021/07/09 06:02:55;;;;;;;21.50;11.57;;;;;;;;;;5031218;28;20145;-85
2021/07/09 06:05:22;;;;;;;17.30;10.98;;;;;;;;;;5012559;28;20088;-84
2021/07/09 06:07:50;;;;;;;16.27;10.48;;;;;;;;;;5013332;28;20133;-84
2021/07/09 06:10:25;;;;;;;17.52;10.35;;;;;;;;;;5007144;28;20049;-85
2021/07/09 06:12:52;;;;;;;17.95;11.55;;;;;;;;;;5012915;28;20171;-84
2021/07/09 06:15:19;;;;;;;20.58;10.82;;;;;;;;;;5012789;28;20566;-84
2021/07/09 06:17:51;;;;;;;25.45;12.43;;;;;;;;;;5013392;28;20073;-84
2021/07/09 06:20:19;;;;;;;22.70;12.30;;;;;;;;;;5011767;28;20111;-85
2021/07/09 06:22:46;;;;;;;29.50;12.90;;;;;;;;;;5013266;28;20080;-85
2021/07/09 06:25:14;;;;;;;21.48;11.13;;;;;;;;;;5010985;28;20089;-84
2021/07/09 06:27:42;;;;;;;23.13;11.43;;;;;;;;;;5028394;28;20107;-84
2021/07/09 06:30:09;;;;;;;21.02;11.52;;;;;;;;;;5011668;28;20091;-84
2021/07/09 06:32:36;;;;;;;24.08;11.43;;;;;;;;;;5024718;28;20134;-85
2021/07/09 06:35:06;;;;;;;24.60;11.60;;;;;;;;;;5005734;28;20497;-85
2021/07/09 06:37:33;;;;;;;23.73;11.02;;;;;;;;;;5007564;28;20080;-84
2021/07/09 06:40:02;;;;;;;18.27;10.52;;;;;;;;;;5008212;28;20060;-84
2021/07/09 06:42:29;;;;;;;27.27;10.82;;;;;;;;;;5007714;28;20088;-84
2021/07/09 06:44:56;;;;;;;15.65;9.55;;;;;;;;;;5004870;28;20084;-85
2021/07/09 06:47:23;;;;;;;19.80;9.40;;;;;;;;;;5005682;28;20490;-84
2021/07/09 06:49:51;;;;;;;21.52;9.20;;;;;;;;;;5005998;28;20119;-84
2021/07/09 06:52:18;;;;;;;17.17;9.80;;;;;;;;;;5025255;28;20057;-84
2021/07/09 06:54:45;;;;;;;19.08;9.35;;;;;;;;;;5024864;28;20152;-85
2021/07/09 06:57:13;;;;;;;15.73;9.13;;;;;;;;;;5007669;28;20136;-85
2021/07/09 06:59:42;;;;;;;17.73;8.15;;;;;;;;;;5007102;28;20135;-84
2021/07/09 07:02:11;;;;;;;16.75;8.60;;;;;;;;;;5025613;28;20045;-84
2021/07/09 07:04:39;;;;;;;22.58;8.63;;;;;;;;;;5025243;28;20184;-85
2021/07/09 07:07:07;;;;;;;23.92;8.80;;;;;;;;;;5007674;28;20462;-85
2021/07/09 07:09:37;;;;;;;14.38;7.50;;;;;;;;;;5025000;28;20135;-84
2021/07/09 07:12:08;;;;;;;17.75;8.20;;;;;;;;;;5007077;28;20144;-84
2021/07/09 07:14:35;;;;;;;16.13;8.15;;;;;;;;;;5024970;28;20538;-85
2021/07/09 07:17:03;;;;;;;12.85;6.45;;;;;;;;;;5007700;28;20077;-85
2021/07/09 07:19:30;;;;;;;15.68;6.88;;;;;;;;;;5007261;28;20125;-84
2021/07/09 07:22:01;;;;;;;13.52;6.85;;;;;;;;;;5007513;28;20124;-84
2021/07/09 07:24:29;;;;;;;16.45;6.57;;;;;;;;;;5007183;28;20057;-85
2021/07/09 07:26:58;;;;;;;16.20;6.75;;;;;;;;;;5006640;28;20575;-84
2021/07/09 07:29:25;;;;;;;20.02;7.45;;;;;;;;;;5008411;28;20577;-84
2021/07/09 07:31:53;;;;;;;13.90;6.72;;;;;;;;;;5011368;28;20152;-86
2021/07/09 07:34:20;;;;;;;27.63;8.60;;;;;;;;;;5008537;28;20061;-85
2021/07/09 07:36:48;;;;;;;12.60;6.88;;;;;;;;;;5006813;28;20087;-85
2021/07/09 07:39:16;;;;;;;17.60;6.60;;;;;;;;;;5025018;28;20050;-85
2021/07/09 07:41:43;;;;;;;13.65;5.78;;;;;;;;;;5007378;28;20498;-86
2021/07/09 07:44:10;;;;;;;14.18;6.30;;;;;;;;;;5007213;28;20085;-85
2021/07/09 07:46:37;;;;;;;13.95;5.38;;;;;;;;;;5025783;28;20086;-85
2021/07/09 07:49:05;;;;;;;18.33;5.90;;;;;;;;;;5010800;28;20060;-85
2021/07/09 07:51:32;;;;;;;16.08;5.22;;;;;;;;;;5011003;28;20156;-86
2021/07/09 07:54:00;;;;;;;13.13;5.00;;;;;;;;;;5010900;28;20053;-86
2021/07/09 07:56:27;;;;;;;7.28;4.63;;;;;;;;;;5010707;28;20140;-86
2021/07/09 07:58:54;;;;;;;16.08;4.93;;;;;;;;;;5011049;28;20349;-85
2021/07/09 08:01:22;;;;;;;10.07;4.10;;;;;;;;;;5010572;28;20537;-86
2021/07/09 08:03:50;;;;;;;9.07;4.28;;;;;;;;;;5010883;28;20045;-85
2021/07/09 08:06:18;;;;;;;5.80;3.78;;;;;;;;;;5010624;28;20131;-85
2021/07/09 08:08:45;;;;;;;9.38;3.75;;;;;;;;;;5010887;28;20085;-87
2021/07/09 08:11:12;;;;;;;10.13;4.18;;;;;;;;;;5011333;28;20152;-87
2021/07/09 08:13:39;;;;;;;8.27;4.15;;;;;;;;;;5011052;28;20153;-87
2021/07/09 08:16:07;;;;;;;7.85;4.25;;;;;;;;;;5010083;28;20228;-87
2021/07/09 08:18:36;;;;;;;11.90;4.60;;;;;;;;;;5010481;28;20119;-87
2021/07/09 08:21:03;;;;;;;8.82;3.90;;;;;;;;;;5010934;28;20497;-87
2021/07/09 08:23:31;;;;;;;7.45;3.00;;;;;;;;;;5010874;28;20336;-86
2021/07/09 08:25:58;;;;;;;7.32;3.58;;;;;;;;;;5010181;28;20624;-87
2021/07/09 08:28:26;;;;;;;126.88;16.67;;;;;;;;;;5028875;28;20137;-87
2021/07/09 08:30:54;;;;;;;48.17;6.75;;;;;;;;;;5010908;28;20466;-87
2021/07/09 08:33:23;;;;;;;13.27;3.72;;;;;;;;;;5011258;28;20607;-88
2021/07/09 08:35:55;;;;;;;47.38;7.88;;;;;;;;;;5012020;28;20527;-88
2021/07/09 08:38:22;;;;;;;15.45;3.38;;;;;;;;;;5012703;28;20053;-90
2021/07/09 08:40:49;;;;;;;6.22;2.83;;;;;;;;;;5013543;28;20136;-91
2021/07/09 08:43:32;;;;;;;5.85;3.00;;;;;;;;;;5021878;28;20056;-89
2021/07/09 08:46:01;;;;;;;10.60;3.40;;;;;;;;;;5036155;28;20053;-89
2021/07/09 08:48:29;;;;;;;8.85;3.30;;;;;;;;;;5020336;28;20061;-89
2021/07/09 08:51:00;;;;;;;9.80;2.80;;;;;;;;;;5013914;28;20057;-89
2021/07/09 08:53:28;;;;;;;6.05;2.25;;;;;;;;;;5013934;28;20404;-90
2021/07/09 08:55:59;;;;;;;22.15;4.88;;;;;;;;;;5013133;28;20077;-89
2021/07/09 08:58:27;;;;;;;6.45;2.45;;;;;;;;;;5013249;28;20083;-89
2021/07/09 09:00:55;;;;;;;4.82;1.85;;;;;;;;;;5013321;28;20073;-89
2021/07/09 09:03:24;;;;;;;5.95;2.15;;;;;;;;;;5012883;28;20049;-90
2021/07/09 09:05:53;;;;;;;11.05;2.28;;;;;;;;;;5012543;28;20053;-89
2021/07/09 09:08:23;;;;;;;14.60;3.20;;;;;;;;;;5012541;28;20080;-89
2021/07/09 09:10:53;;;;;;;37.08;5.45;;;;;;;;;;5011389;28;20396;-89
2021/07/09 09:13:39;;;;;;;7.78;1.85;;;;;;;;;;5011668;28;20053;-88
2021/07/09 09:16:09;;;;;;;461.92;63.80;;;;;;;;;;5011021;28;20059;-89
2021/07/09 09:18:39;;;;;;;10.00;2.95;;;;;;;;;;5030508;28;20050;-89
2021/07/09 09:21:10;;;;;;;49.80;4.85;;;;;;;;;;5010578;28;20544;-89
2021/07/09 09:23:40;;;;;;;83.40;12.00;;;;;;;;;;5010318;28;20088;-89
2021/07/09 09:26:07;;;;;;;3.08;1.90;;;;;;;;;;5018989;28;20100;-90
2021/07/09 09:28:35;;;;;;;4.57;1.80;;;;;;;;;;5012043;28;20054;-91
2021/07/09 09:31:02;;;;;;;10.43;2.30;;;;;;;;;;5011677;28;20077;-90
2021/07/09 09:33:34;;;;;;;12.45;2.78;;;;;;;;;;5010649;28;20561;-90
2021/07/09 09:36:05;;;;;;;6.95;1.80;;;;;;;;;;5009941;28;20240;-89
2021/07/09 09:38:32;;;;;;;5.47;1.70;;;;;;;;;;5010353;28;20076;-89
2021/07/09 09:41:00;;;;;;;7.07;2.15;;;;;;;;;;5010191;28;20140;-89
2021/07/09 09:43:30;;;;;;;5.22;1.90;;;;;;;;;;5010353;28;20315;-89
2021/07/09 09:46:03;;;;;;;12.80;2.75;;;;;;;;;;5010088;28;20054;-90
2021/07/09 09:48:39;;;;;;;9.23;1.88;;;;;;;;;;5010139;28;20084;-89
2021/07/09 09:51:23;;;;;;;4.22;2.13;;;;;;;;;;5010675;28;20552;-90
2021/07/09 09:53:52;;;;;;;;;;;;;;;;;;5010762;28;20778;-89
2021/07/09 09:56:40;;;;;;;6.25;1.95;;;;;;;;;;5026926;28;20016;-89
2021/07/09 09:59:11;;;;;;;5.22;1.85;;;;;;;;;;5010565;28;20041;-89
2021/07/09 10:01:38;;;;;;;3.72;1.83;;;;;;;;;;5009302;28;20513;-89
2021/07/09 10:04:06;;;;;;;6.72;1.95;;;;;;;;;;5010066;28;20053;-89
2021/07/09 10:06:34;;;;;;;3.78;1.90;;;;;;;;;;5009600;28;20540;-89
2021/07/09 10:09:01;;;;;;;9.02;2.60;;;;;;;;;;5010564;28;20069;-89
2021/07/09 10:11:29;;;;;;;10.38;2.13;;;;;;;;;;5008611;28;20061;-89
2021/07/09 10:13:57;;;;;;;7.22;2.00;;;;;;;;;;5009376;28;20115;-89
2021/07/09 10:16:25;;;;;;;6.93;2.03;;;;;;;;;;5008967;28;20533;-89
2021/07/09 10:18:55;;;;;;;4.13;1.90;;;;;;;;;;5009550;28;20061;-89
2021/07/09 10:21:22;;;;;;;12.43;2.60;;;;;;;;;;5009835;28;20482;-89
2021/07/09 10:23:50;;;;;;;7.00;1.88;;;;;;;;;;5009441;28;20138;-90
2021/07/09 10:26:18;;;;;;;3.72;2.03;;;;;;;;;;5008772;28;20053;-89
2021/07/09 10:29:04;;;;;;;8.70;1.70;;;;;;;;;;5009383;28;20490;-89
2021/07/09 10:31:36;;;;;;;2.97;1.67;;;;;;;;;;5008951;28;20054;-88
2021/07/09 10:34:35;;;;;;;4.75;1.73;;;;;;;;;;5009284;28;20519;-89
2021/07/09 10:37:05;;;;;;;2.60;1.55;;;;;;;;;;4976378;28;20290;-89
2021/07/09 10:39:43;;;;;;;8.75;1.88;;;;;;;;;;5008933;28;20053;-89
2021/07/09 10:42:15;;;;;;;4.53;2.13;;;;;;;;;;5026162;28;20099;-89
2021/07/09 10:45:02;;;;;;;2.97;1.92;;;;;;;;;;5008277;28;20065;-89
2021/07/09 10:47:36;;;;;;;7.68;2.10;;;;;;;;;;5009044;28;20080;-89
2021/07/09 10:50:11;;;;;;;3.63;2.25;;;;;;;;;;5009660;28;20119;-89
2021/07/09 10:52:44;;;;;;;7.40;2.17;;;;;;;;;;5008644;28;20103;-89
2021/07/09 10:55:27;;;;;;;32.58;3.25;;;;;;;;;;5008611;28;20064;-89
2021/07/09 10:58:07;;;;;;;5.55;1.95;;;;;;;;;;5008478;28;20053;-89
2021/07/09 11:00:40;;;;;;;6.07;2.05;;;;;;;;;;5008450;28;20049;-89
2021/07/09 11:03:08;;;;;;;10.88;2.50;;;;;;;;;;5008379;28;20132;-89
2021/07/09 11:05:45;;;;;;;4.65;2.17;;;;;;;;;;5007937;28;20053;-89
2021/07/09 11:08:34;;;;;;;14.48;2.83;;;;;;;;;;5008367;28;20395;-88
2021/07/09 11:11:06;;;;;;;6.90;2.67;;;;;;;;;;5008307;28;20065;-89
2021/07/09 11:13:42;;;;;;;2.78;2.03;;;;;;;;;;5008981;28;20041;-88
2021/07/09 11:16:18;;;;;;;10.32;2.78;;;;;;;;;;5007619;28;20057;-89
2021/07/09 11:18:46;;;;;;;5.38;1.92;;;;;;;;;;5008212;28;20053;-89
2021/07/09 11:21:15;;;;;;;18.98;2.20;;;;;;;;;;5007458;28;20045;-88
2021/07/09 11:23:52;;;;;;;4.80;2.10;;;;;;;;;;5008560;28;20046;-89
2021/07/09 11:26:28;;;;;;;5.90;2.17;;;;;;;;;;5007125;28;20057;-88
2021/07/09 11:28:59;;;;;;;7.07;2.08;;;;;;;;;;5007020;28;20057;-89
2021/07/09 11:31:33;;;;;;;17.17;3.08;;;;;;;;;;5006954;28;20063;-89
2021/07/09 11:34:03;;;;;;;6.93;2.08;;;;;;;;;;5007464;28;20053;-89
2021/07/09 11:36:42;;;;;;;9.10;2.08;;;;;;;;;;5006556;28;20060;-89
2021/07/09 11:39:20;;;;;;;5.07;2.00;;;;;;;;;;5006926;28;20172;-90
2021/07/09 11:42:01;;;;;;;8.13;2.60;;;;;;;;;;5007113;28;20053;-89
2021/07/09 11:44:48;;;;;;;7.80;2.40;;;;;;;;;;5007174;28;20129;-90
2021/07/09 11:47:17;;;;;;;5.57;2.20;;;;;;;;;;5008976;28;20140;-89
2021/07/09 11:49:49;;;;;;;5.38;2.00;;;;;;;;;;5008911;28;20060;-90
2021/07/09 11:52:23;;;;;;;7.32;2.13;;;;;;;;;;5008023;28;20152;-90
2021/07/09 11:54:52;;;;;;;5.97;2.30;;;;;;;;;;5008038;28;20056;-90
2021/07/09 11:57:23;;;;;;;4.38;2.17;;;;;;;;;;5008930;28;20128;-90
2021/07/09 12:00:06;;;;;;;3.53;2.00;;;;;;;;;;5009982;28;20073;-89
2021/07/09 12:02:33;;;;;;;10.85;2.45;;;;;;;;;;5008264;28;20115;-88
2021/07/09 12:05:02;;;;;;;6.10;2.70;;;;;;;;;;5007311;28;20049;-90
2021/07/09 12:07:33;;;;;;;9.73;2.72;;;;;;;;;;5007953;28;20045;-89
2021/07/09 12:10:04;;;;;;;6.72;2.35;;;;;;;;;;5008699;28;20053;-89
2021/07/09 12:12:42;;;;;;;9.60;2.60;;;;;;;;;;5007584;28;20496;-89
2021/07/09 12:15:17;;;;;;;5.03;2.25;;;;;;;;;;5008173;28;20530;-90
2021/07/09 12:17:46;;;;;;;8.15;2.92;;;;;;;;;;5007020;28;20783;-89
2021/07/09 12:20:22;;;;;;;7.22;2.78;;;;;;;;;;5008926;28;20052;-89
2021/07/09 12:22:53;;;;;;;5.40;2.47;;;;;;;;;;5008082;28;20049;-89
2021/07/09 12:25:25;;;;;;;9.15;2.75;;;;;;;;;;5007490;28;20045;-89
2021/07/09 12:27:54;;;;;;;5.93;2.58;;;;;;;;;;5008350;28;20281;-89
2021/07/09 12:30:22;;;;;;;4.55;2.25;;;;;;;;;;5007750;28;20144;-89
2021/07/09 12:32:54;;;;;;;7.25;2.45;;;;;;;;;;5008097;28;20057;-89
2021/07/09 12:35:22;;;;;;;7.75;2.80;;;;;;;;;;5011228;28;20081;-89
2021/07/09 12:37:57;;;;;;;5.18;3.15;;;;;;;;;;5011581;28;20115;-89
2021/07/09 12:40:28;;;;;;;7.78;3.22;;;;;;;;;;5011699;28;20140;-89
2021/07/09 12:43:08;;;;;;;8.90;3.58;;;;;;;;;;5012272;28;20050;-89
2021/07/09 12:45:35;;;;;;;4.68;3.28;;;;;;;;;;5012038;28;20084;-89
2021/07/09 12:48:12;;;;;;;5.22;2.83;;;;;;;;;;5013708;28;20046;-90
2021/07/09 12:50:40;;;;;;;8.00;3.40;;;;;;;;;;5011884;28;20062;-89
2021/07/09 12:53:29;;;;;;;3.00;2.40;;;;;;;;;;5012037;28;20045;-90
2021/07/09 12:55:56;;;;;;;8.18;3.38;;;;;;;;;;5012493;28;20083;-89
2021/07/09 12:58:29;;;;;;;9.23;3.25;;;;;;;;;;5029333;28;20134;-89
2021/07/09 13:01:06;;;;;;;5.97;3.47;;;;;;;;;;5010555;28;20439;-89
2021/07/09 13:03:34;;;;;;;6.82;3.65;;;;;;;;;;5009789;28;20060;-88
2021/07/09 13:06:22;;;;;;;11.63;4.03;;;;;;;;;;5010582;28;20128;-89
2021/07/09 13:08:49;;;;;;;10.65;3.85;;;;;;;;;;5009707;28;20219;-89
2021/07/09 13:11:22;;;;;;;7.97;3.40;;;;;;;;;;5010150;28;20135;-88
2021/07/09 13:13:54;;;;;;;10.32;3.83;;;;;;;;;;5009552;28;20084;-89
2021/07/09 13:16:23;;;;;;;8.60;3.35;;;;;;;;;;5009603;28;20493;-88
2021/07/09 13:18:54;;;;;;;7.38;3.58;;;;;;;;;;5011362;28;20059;-89
2021/07/09 13:21:24;;;;;;;7.78;3.47;;;;;;;;;;5010024;28;20049;-89
2021/07/09 13:24:07;;;;;;;15.75;4.80;;;;;;;;;;5010808;28;20088;-89
2021/07/09 13:26:36;;;;;;;17.65;5.10;;;;;;;;;;5010836;28;20085;-89
2021/07/09 13:29:04;;;;;;;11.68;6.05;;;;;;;;;;5010410;28;20469;-90
2021/07/09 13:31:32;;;;;;;23.83;6.25;;;;;;;;;;5010664;28;20053;-90
2021/07/09 13:33:59;;;;;;;11.75;6.68;;;;;;;;;;5011278;28;20061;-89
2021/07/09 13:36:31;;;;;;;12.15;8.20;;;;;;;;;;5010245;28;20422;-90
2021/07/09 13:38:59;;;;;;;17.75;7.50;;;;;;;;;;5010914;28;20063;-90
2021/07/09 13:41:29;;;;;;;15.65;8.07;;;;;;;;;;5010830;28;20050;-90
2021/07/09 13:43:57;;;;;;;16.95;7.78;;;;;;;;;;5028171;28;20057;-89
2021/07/09 13:46:26;;;;;;;16.80;8.20;;;;;;;;;;5011376;28;20053;-90
2021/07/09 13:48:54;;;;;;;19.40;7.80;;;;;;;;;;5011042;28;20053;-90
2021/07/09 13:51:21;;;;;;;16.48;7.90;;;;;;;;;;5011660;28;20061;-90
2021/07/09 13:53:56;;;;;;;17.83;7.55;;;;;;;;;;5011061;28;20087;-90
2021/07/09 13:56:23;;;;;;;18.45;6.63;;;;;;;;;;5011712;28;20103;-90
2021/07/09 13:58:55;;;;;;;18.10;6.80;;;;;;;;;;5012638;28;20128;-93
2021/07/09 14:01:25;;;;;;;20.20;8.70;;;;;;;;;;5017608;28;20128;-93
2021/07/09 14:04:04;;;;;;;33.58;10.43;;;;;;;;;;5020879;28;20490;-95
2021/07/09 14:06:34;;;;;;;29.92;10.65;;;;;;;;;;5022257;28;20064;-96
2021/07/09 14:12:49;;;;;;;32.22;11.43;;;;;;;;;;5044395;28;20575;-96
2021/07/09 14:15:57;;;;;;;25.55;12.05;;;;;;;;;;5023957;28;20056;-95
2021/07/09 14:18:35;;;;;;;17.80;11.15;;;;;;;;;;5017821;28;20400;-93
2021/07/09 14:25:01;;;;;;;23.23;10.85;;;;;;;;;;5033029;28;20032;-92
2021/07/09 14:27:41;;;;;;;29.98;11.68;;;;;;;;;;5030004;28;20049;-91
2021/07/09 14:30:09;;;;;;;25.38;12.98;;;;;;;;;;5011987;28;20449;-91
2021/07/09 14:33:13;;;;;;;;;;;;;;;;;;;;;
2021/07/09 14:36:05;;;;;;;18.08;9.20;;;;;;;;;;5033008;28;20053;-91
2021/07/09 14:38:44;;;;;;;21.45;9.82;;;;;;;;;;5014422;28;20140;-92
2021/07/09 14:48:13;;;;;;;16.33;8.38;;;;;;;;;;5027983;28;20053;-90
2021/07/09 14:50:48;;;;;;;14.18;7.85;;;;;;;;;;5016806;28;20059;-92
2021/07/09 14:53:20;;;;;;;19.13;7.40;;;;;;;;;;5014806;28;20136;-90
2021/07/09 14:55:51;;;;;;;17.33;6.80;;;;;;;;;;5029672;28;20053;-90
2021/07/09 14:58:23;;;;;;;10.30;5.68;;;;;;;;;;5014512;28;20046;-91
2021/07/09 15:01:44;;;;;;;10.38;5.90;;;;;;;;;;5015558;28;20045;-90
2021/07/09 15:04:28;;;;;;;10.90;6.10;;;;;;;;;;5016950;28;20482;-91
2021/07/09 15:07:10;;;;;;;11.27;6.18;;;;;;;;;;5032485;28;20053;-91